Time;durP1;ratioP1;P1;durP2;ratioP2;P2;SDS_P1;SDS_P2;PMS_P1;PMS_P2;Temp;Humidity;BMP_temperature;BMP_pressure;BME280_temperature;BME280_humidity;BME280_pressure;Samples;Min_cycle;Max_cycle;Signal;HPM_P1;HPM_P2
2023/07/04 00:02:18;;;;;;;13.63;5.90;;;;;;;;;;4834072;29;20053;-75
2023/07/04 00:04:48;;;;;;;13.18;4.88;;;;;;;;;;4834977;29;20062;-73
2023/07/04 00:07:20;;;;;;;11.27;4.85;;;;;;;;;;4834532;29;20058;-74
2023/07/04 00:09:51;;;;;;;9.48;5.43;;;;;;;;;;4834358;29;20058;-74
2023/07/04 00:12:23;;;;;;;9.00;5.13;;;;;;;;;;4833735;29;20050;-74
2023/07/04 00:14:53;;;;;;;10.18;5.32;;;;;;;;;;4833906;29;20054;-74
2023/07/04 00:17:24;;;;;;;12.07;6.40;;;;;;;;;;4834514;29;20846;-73
2023/07/04 00:19:56;;;;;;;11.45;5.63;;;;;;;;;;4834262;29;20053;-74
2023/07/04 00:22:27;;;;;;;14.30;5.82;;;;;;;;;;4833911;29;20619;-73
2023/07/04 00:24:58;;;;;;;10.73;5.55;;;;;;;;;;4833619;29;20710;-73
2023/07/04 00:27:28;;;;;;;9.63;5.72;;;;;;;;;;4834330;29;20050;-73
2023/07/04 00:29:59;;;;;;;15.20;6.10;;;;;;;;;;4834084;29;20514;-73
2023/07/04 00:32:33;;;;;;;16.65;5.25;;;;;;;;;;4817669;29;20130;-74
2023/07/04 00:35:03;;;;;;;14.70;5.78;;;;;;;;;;4833929;29;20061;-73
2023/07/04 00:37:33;;;;;;;15.43;5.82;;;;;;;;;;4833815;29;20076;-73
2023/07/04 00:40:09;;;;;;;10.70;6.00;;;;;;;;;;4817746;29;20058;-74
2023/07/04 00:42:41;;;;;;;9.50;6.25;;;;;;;;;;4817688;29;20084;-74
2023/07/04 00:45:20;;;;;;;12.80;6.50;;;;;;;;;;4834280;29;20061;-74
2023/07/04 00:48:00;;;;;;;10.13;5.80;;;;;;;;;;4833714;29;20048;-73
2023/07/04 00:50:33;;;;;;;12.02;5.90;;;;;;;;;;4817848;29;20058;-73
2023/07/04 00:53:09;;;;;;;17.95;6.43;;;;;;;;;;4834078;29;20061;-73
2023/07/04 00:55:48;;;;;;;13.20;5.70;;;;;;;;;;4817866;29;20054;-73
2023/07/04 00:58:20;;;;;;;13.00;5.60;;;;;;;;;;4833862;29;20057;-73
2023/07/04 01:00:50;;;;;;;9.77;5.28;;;;;;;;;;4833316;29;20050;-73
2023/07/04 01:03:24;;;;;;;10.10;5.22;;;;;;;;;;4817187;29;20069;-73
2023/07/04 01:06:32;;;;;;;13.27;5.57;;;;;;;;;;4834179;29;20058;-73
2023/07/04 01:09:05;;;;;;;11.27;6.45;;;;;;;;;;4833729;29;20057;-73
2023/07/04 01:11:46;;;;;;;12.23;6.75;;;;;;;;;;4836283;29;20388;-73
2023/07/04 01:14:25;;;;;;;13.02;5.95;;;;;;;;;;4821004;29;20425;-73
2023/07/04 01:16:57;;;;;;;11.32;5.32;;;;;;;;;;4820390;29;20062;-73
2023/07/04 01:19:32;;;;;;;10.38;5.10;;;;;;;;;;4837784;29;20843;-73
2023/07/04 01:22:26;;;;;;;10.65;6.45;;;;;;;;;;4837006;29;20414;-74
2023/07/04 01:25:20;;;;;;;11.75;5.65;;;;;;;;;;4837091;29;20549;-75
2023/07/04 01:27:59;;;;;;;9.25;6.15;;;;;;;;;;4837272;29;20046;-75
2023/07/04 01:30:38;;;;;;;11.63;5.38;;;;;;;;;;4819876;29;20065;-74
2023/07/04 01:33:10;;;;;;;12.43;5.70;;;;;;;;;;4837285;29;20065;-75
2023/07/04 01:35:43;;;;;;;11.25;5.07;;;;;;;;;;4836743;29;20046;-76
2023/07/04 01:38:13;;;;;;;13.38;5.85;;;;;;;;;;4837170;29;20580;-74
2023/07/04 01:40:43;;;;;;;10.90;5.97;;;;;;;;;;4836908;29;20053;-75
2023/07/04 01:43:14;;;;;;;9.88;4.97;;;;;;;;;;4837208;29;20050;-75
2023/07/04 01:45:45;;;;;;;12.90;5.45;;;;;;;;;;4837201;29;20053;-75
2023/07/04 01:48:17;;;;;;;9.15;5.40;;;;;;;;;;4836886;29;20057;-75
2023/07/04 01:50:48;;;;;;;9.82;5.50;;;;;;;;;;4837074;29;20408;-75
2023/07/04 01:53:20;;;;;;;9.20;5.97;;;;;;;;;;4820247;29;20422;-74
2023/07/04 01:55:52;;;;;;;11.07;5.40;;;;;;;;;;4837024;29;20057;-74
2023/07/04 01:58:22;;;;;;;9.55;5.75;;;;;;;;;;4819707;29;20058;-73
2023/07/04 02:00:52;;;;;;;6.78;4.85;;;;;;;;;;4836929;29;20054;-75
2023/07/04 02:03:23;;;;;;;15.65;5.78;;;;;;;;;;4820107;29;20054;-75
2023/07/04 02:05:58;;;;;;;10.18;6.45;;;;;;;;;;4837165;29;20911;-73
2023/07/04 02:08:28;;;;;;;12.32;5.88;;;;;;;;;;4837173;29;20057;-72
2023/07/04 02:10:58;;;;;;;10.00;5.70;;;;;;;;;;4819062;29;20054;-73
2023/07/04 02:13:30;;;;;;;13.32;5.68;;;;;;;;;;4805071;29;20069;-73
2023/07/04 02:16:02;;;;;;;13.63;5.57;;;;;;;;;;4836574;29;20054;-76
2023/07/04 02:18:32;;;;;;;12.95;5.70;;;;;;;;;;4819923;29;20077;-75
2023/07/04 02:21:02;;;;;;;9.02;5.45;;;;;;;;;;4819171;29;20062;-73
2023/07/04 02:23:34;;;;;;;14.57;5.25;;;;;;;;;;4835784;29;20061;-76
2023/07/04 02:26:09;;;;;;;14.77;5.72;;;;;;;;;;4819188;29;20066;-73
2023/07/04 02:28:40;;;;;;;21.65;5.85;;;;;;;;;;4836601;29;20065;-75
2023/07/04 02:31:10;;;;;;;15.15;5.68;;;;;;;;;;4835955;29;20065;-75
2023/07/04 02:33:41;;;;;;;9.50;5.18;;;;;;;;;;4836445;29;20050;-75
2023/07/04 02:36:12;;;;;;;12.82;5.43;;;;;;;;;;4818997;29;20073;-74
2023/07/04 02:38:43;;;;;;;8.75;4.78;;;;;;;;;;4819281;29;20065;-77
2023/07/04 02:41:13;;;;;;;9.00;5.28;;;;;;;;;;4836301;29;20050;-77
2023/07/04 02:43:45;;;;;;;8.88;5.43;;;;;;;;;;4818976;29;20053;-75
2023/07/04 02:46:17;;;;;;;10.65;5.50;;;;;;;;;;4835790;29;20054;-75
2023/07/04 02:48:51;;;;;;;10.90;5.10;;;;;;;;;;4819388;29;20050;-74
2023/07/04 02:51:23;;;;;;;9.65;4.80;;;;;;;;;;4819468;29;20068;-74
2023/07/04 02:53:53;;;;;;;11.15;5.15;;;;;;;;;;4836307;29;20057;-74
2023/07/04 02:56:25;;;;;;;7.75;4.75;;;;;;;;;;4818847;29;20062;-74
2023/07/04 02:58:55;;;;;;;10.63;4.80;;;;;;;;;;4835607;29;20057;-74
2023/07/04 03:01:25;;;;;;;6.93;4.03;;;;;;;;;;4835532;29;20050;-74
2023/07/04 03:03:56;;;;;;;7.90;4.55;;;;;;;;;;4818939;29;20503;-75
2023/07/04 03:06:28;;;;;;;6.63;3.97;;;;;;;;;;4818892;29;20081;-74
2023/07/04 03:08:58;;;;;;;8.65;4.25;;;;;;;;;;4818694;29;20065;-74
2023/07/04 03:11:30;;;;;;;6.13;4.03;;;;;;;;;;4818406;29;20681;-74
2023/07/04 03:14:01;;;;;;;7.03;4.55;;;;;;;;;;4818246;29;20442;-74
2023/07/04 03:16:33;;;;;;;8.82;4.28;;;;;;;;;;4818693;29;20329;-74
2023/07/04 03:19:04;;;;;;;8.50;4.40;;;;;;;;;;4818837;29;20053;-74
2023/07/04 03:21:33;;;;;;;12.80;4.65;;;;;;;;;;4818931;29;20387;-74
2023/07/04 03:24:06;;;;;;;8.80;4.22;;;;;;;;;;4803085;29;20548;-74
2023/07/04 03:26:40;;;;;;;7.88;3.95;;;;;;;;;;4819068;29;20541;-75
2023/07/04 03:29:11;;;;;;;7.55;4.47;;;;;;;;;;4833944;29;20061;-74
2023/07/04 03:31:42;;;;;;;6.45;3.97;;;;;;;;;;4815791;29;20080;-74
2023/07/04 03:34:14;;;;;;;7.70;4.47;;;;;;;;;;4814877;29;20061;-74
2023/07/04 03:36:46;;;;;;;6.70;4.88;;;;;;;;;;4832731;29;20795;-74
2023/07/04 03:39:15;;;;;;;10.23;4.13;;;;;;;;;;4815241;29;20133;-74
2023/07/04 03:41:46;;;;;;;5.20;3.70;;;;;;;;;;4832518;29;20072;-74
2023/07/04 03:44:17;;;;;;;9.13;4.32;;;;;;;;;;4832384;29;20050;-74
2023/07/04 03:46:48;;;;;;;9.45;4.97;;;;;;;;;;4816053;29;20058;-74
2023/07/04 03:49:18;;;;;;;8.07;4.68;;;;;;;;;;4815407;29;20062;-74
2023/07/04 03:51:50;;;;;;;8.55;4.93;;;;;;;;;;4815469;29;20522;-74
2023/07/04 03:54:22;;;;;;;6.65;4.68;;;;;;;;;;4832066;29;20411;-74
2023/07/04 03:56:53;;;;;;;6.18;4.60;;;;;;;;;;4815062;29;20430;-74
2023/07/04 03:59:23;;;;;;;7.47;4.30;;;;;;;;;;4832309;29;20046;-74
2023/07/04 04:01:53;;;;;;;7.60;4.20;;;;;;;;;;4800179;29;20057;-74
2023/07/04 04:04:23;;;;;;;6.95;4.15;;;;;;;;;;4816006;29;20046;-74
2023/07/04 04:06:56;;;;;;;6.95;4.10;;;;;;;;;;4815739;29;20058;-74
2023/07/04 04:09:27;;;;;;;9.65;4.72;;;;;;;;;;4831624;29;20049;-74
2023/07/04 04:11:57;;;;;;;10.93;4.63;;;;;;;;;;4831600;29;20050;-73
2023/07/04 04:14:29;;;;;;;10.00;4.30;;;;;;;;;;4833613;29;20589;-74
2023/07/04 04:17:00;;;;;;;6.20;3.95;;;;;;;;;;4834437;29;20506;-74
2023/07/04 04:19:31;;;;;;;12.85;4.43;;;;;;;;;;4834386;29;20113;-73
2023/07/04 04:22:02;;;;;;;7.60;4.25;;;;;;;;;;4834177;29;20561;-74
2023/07/04 04:24:35;;;;;;;6.07;4.20;;;;;;;;;;4833826;29;20061;-73
2023/07/04 04:27:08;;;;;;;7.35;3.90;;;;;;;;;;4819013;29;20057;-74
2023/07/04 04:29:40;;;;;;;7.55;3.83;;;;;;;;;;4834381;29;20046;-74
2023/07/04 04:32:12;;;;;;;5.57;3.97;;;;;;;;;;4834570;29;20049;-74
2023/07/04 04:34:43;;;;;;;5.18;3.63;;;;;;;;;;4833689;29;20049;-73
2023/07/04 04:37:13;;;;;;;5.60;3.85;;;;;;;;;;4834116;29;20072;-74
2023/07/04 04:39:44;;;;;;;6.47;4.05;;;;;;;;;;4834245;29;20532;-73
2023/07/04 04:42:15;;;;;;;7.88;3.85;;;;;;;;;;4817410;29;20053;-73
2023/07/04 04:44:45;;;;;;;11.93;4.25;;;;;;;;;;4834457;29;20065;-73
2023/07/04 04:47:16;;;;;;;8.05;4.28;;;;;;;;;;4833892;29;20904;-74
2023/07/04 04:49:46;;;;;;;8.35;4.00;;;;;;;;;;4834141;29;20540;-73
2023/07/04 04:52:16;;;;;;;9.13;4.68;;;;;;;;;;4833929;29;20053;-74
2023/07/04 04:54:47;;;;;;;6.38;3.53;;;;;;;;;;4834203;29;20060;-74
2023/07/04 04:57:21;;;;;;;7.82;3.55;;;;;;;;;;4833800;29;20114;-73
2023/07/04 04:59:52;;;;;;;6.82;3.72;;;;;;;;;;4833674;29;20049;-73
2023/07/04 05:02:23;;;;;;;9.35;4.10;;;;;;;;;;4817387;29;20056;-74
2023/07/04 05:04:54;;;;;;;5.95;3.97;;;;;;;;;;4833373;29;20049;-74
2023/07/04 05:07:25;;;;;;;6.53;4.20;;;;;;;;;;4833908;29;20398;-73
2023/07/04 05:10:00;;;;;;;7.72;3.75;;;;;;;;;;4834363;29;20056;-74
2023/07/04 05:12:32;;;;;;;5.63;3.38;;;;;;;;;;4833652;29;20045;-74
2023/07/04 05:15:03;;;;;;;6.20;3.50;;;;;;;;;;4833275;29;20060;-73
2023/07/04 05:17:35;;;;;;;5.35;3.90;;;;;;;;;;4834573;29;20046;-73
2023/07/04 05:20:06;;;;;;;5.82;4.32;;;;;;;;;;4834015;29;20418;-73
2023/07/04 05:22:36;;;;;;;6.93;3.70;;;;;;;;;;4833386;29;20049;-73
2023/07/04 05:25:07;;;;;;;6.53;4.03;;;;;;;;;;4815986;29;20058;-73
2023/07/04 05:27:38;;;;;;;7.43;3.70;;;;;;;;;;4833518;29;20046;-73
2023/07/04 05:30:10;;;;;;;7.10;3.90;;;;;;;;;;4832916;29;20507;-73
2023/07/04 05:32:40;;;;;;;6.47;4.07;;;;;;;;;;4834085;29;20038;-73
2023/07/04 05:35:10;;;;;;;5.22;4.07;;;;;;;;;;4817404;29;20053;-73
2023/07/04 05:37:41;;;;;;;7.38;3.88;;;;;;;;;;4833851;29;20065;-73
2023/07/04 05:40:13;;;;;;;7.60;3.67;;;;;;;;;;4833531;29;20054;-73
2023/07/04 05:42:44;;;;;;;6.15;3.83;;;;;;;;;;4833618;29;20520;-73
2023/07/04 05:45:13;;;;;;;8.18;3.70;;;;;;;;;;4833608;29;20509;-73
2023/07/04 05:47:44;;;;;;;4.97;3.33;;;;;;;;;;4833103;29;20054;-73
2023/07/04 05:50:15;;;;;;;7.50;3.83;;;;;;;;;;4833768;29;20413;-73
2023/07/04 05:52:47;;;;;;;5.88;3.83;;;;;;;;;;4833885;29;20049;-73
2023/07/04 05:55:17;;;;;;;9.18;4.00;;;;;;;;;;4817399;29;20064;-73
2023/07/04 05:57:46;;;;;;;6.45;3.78;;;;;;;;;;4836251;29;20061;-73
2023/07/04 06:00:17;;;;;;;5.80;3.90;;;;;;;;;;4836120;29;20049;-74
2023/07/04 06:02:49;;;;;;;5.97;4.47;;;;;;;;;;4836905;29;20386;-73
2023/07/04 06:05:20;;;;;;;7.00;4.10;;;;;;;;;;4836919;29;20050;-73
2023/07/04 06:07:51;;;;;;;6.40;3.45;;;;;;;;;;4837076;29;20061;-73
2023/07/04 06:10:23;;;;;;;8.93;3.85;;;;;;;;;;4836526;29;20046;-73
2023/07/04 06:12:53;;;;;;;5.45;3.75;;;;;;;;;;4836036;29;20050;-73
2023/07/04 06:15:24;;;;;;;10.32;3.70;;;;;;;;;;4836580;29;20054;-73
2023/07/04 06:17:55;;;;;;;9.75;3.90;;;;;;;;;;4836923;29;20103;-73
2023/07/04 06:20:25;;;;;;;6.43;4.28;;;;;;;;;;4836395;29;20050;-73
2023/07/04 06:22:56;;;;;;;6.55;3.78;;;;;;;;;;4836413;29;20061;-73
2023/07/04 06:25:27;;;;;;;6.03;4.15;;;;;;;;;;4836727;29;20532;-74
2023/07/04 06:27:58;;;;;;;8.45;4.43;;;;;;;;;;4836455;29;20061;-73
2023/07/04 06:30:32;;;;;;;7.97;4.13;;;;;;;;;;4836263;29;20367;-74
2023/07/04 06:33:06;;;;;;;9.85;4.30;;;;;;;;;;4835785;29;20062;-73
2023/07/04 06:35:41;;;;;;;6.88;4.13;;;;;;;;;;4835734;29;20050;-73
2023/07/04 06:38:12;;;;;;;6.65;3.92;;;;;;;;;;4836192;29;20510;-73
2023/07/04 06:40:42;;;;;;;12.55;4.50;;;;;;;;;;4836653;29;20069;-74
2023/07/04 06:43:13;;;;;;;5.70;3.58;;;;;;;;;;4836513;29;20506;-74
2023/07/04 06:45:44;;;;;;;8.73;4.00;;;;;;;;;;4819622;29;20046;-73
2023/07/04 06:48:15;;;;;;;8.10;3.90;;;;;;;;;;4835600;29;20057;-73
2023/07/04 06:50:58;;;;;;;6.05;3.80;;;;;;;;;;4836129;29;20636;-73
2023/07/04 06:53:30;;;;;;;6.35;3.78;;;;;;;;;;4818954;29;20062;-73
2023/07/04 06:56:12;;;;;;;5.15;3.30;;;;;;;;;;4835985;29;20050;-74
2023/07/04 06:58:48;;;;;;;5.32;3.83;;;;;;;;;;4835956;29;20050;-73
2023/07/04 07:01:21;;;;;;;6.30;3.65;;;;;;;;;;4835342;29;20072;-74
2023/07/04 07:03:52;;;;;;;5.53;3.33;;;;;;;;;;4835579;29;20053;-73
2023/07/04 07:06:23;;;;;;;8.65;4.50;;;;;;;;;;4835902;29;20399;-73
2023/07/04 07:08:57;;;;;;;9.68;3.63;;;;;;;;;;4834641;29;20042;-74
2023/07/04 07:11:27;;;;;;;8.52;4.00;;;;;;;;;;4835650;29;20049;-74
2023/07/04 07:13:57;;;;;;;5.85;3.28;;;;;;;;;;4818820;29;20058;-74
2023/07/04 07:16:29;;;;;;;5.55;3.78;;;;;;;;;;4835392;29;20053;-73
2023/07/04 07:19:00;;;;;;;7.75;3.70;;;;;;;;;;4835568;29;20041;-74
2023/07/04 07:21:30;;;;;;;6.57;3.90;;;;;;;;;;4835158;29;20049;-73
2023/07/04 07:24:01;;;;;;;;;;;;;;;;;;4819883;29;20077;-73
2023/07/04 07:26:33;;;;;;;6.32;3.10;;;;;;;;;;4835115;29;19944;-74
2023/07/04 07:29:04;;;;;;;8.32;4.03;;;;;;;;;;4835295;29;20053;-74
2023/07/04 07:31:35;;;;;;;5.03;3.03;;;;;;;;;;4835206;29;20050;-74
2023/07/04 07:34:05;;;;;;;7.50;3.55;;;;;;;;;;4803787;29;20068;-73
2023/07/04 07:36:41;;;;;;;6.35;3.22;;;;;;;;;;4835184;29;20049;-74
2023/07/04 07:39:15;;;;;;;6.72;3.50;;;;;;;;;;4835585;29;20076;-74
2023/07/04 07:41:47;;;;;;;9.50;3.35;;;;;;;;;;4835019;29;20054;-73
2023/07/04 07:44:18;;;;;;;5.43;3.42;;;;;;;;;;4835172;29;20076;-73
2023/07/04 07:46:48;;;;;;;7.15;3.55;;;;;;;;;;4835214;29;20471;-73
2023/07/04 07:49:19;;;;;;;6.93;3.58;;;;;;;;;;4834750;29;20049;-73
2023/07/04 07:51:51;;;;;;;9.27;3.30;;;;;;;;;;4835334;29;20144;-73
2023/07/04 07:54:21;;;;;;;5.82;3.25;;;;;;;;;;4834843;29;20558;-73
2023/07/04 07:56:52;;;;;;;6.72;3.15;;;;;;;;;;4834469;29;20506;-74
2023/07/04 07:59:22;;;;;;;4.55;3.45;;;;;;;;;;4835028;29;20056;-74
2023/07/04 08:01:55;;;;;;;5.97;3.67;;;;;;;;;;4834943;29;20058;-74
2023/07/04 08:04:26;;;;;;;5.05;4.38;;;;;;;;;;4834420;29;20548;-73
2023/07/04 08:06:57;;;;;;;7.43;4.13;;;;;;;;;;4834965;29;20497;-73
2023/07/04 08:09:29;;;;;;;6.57;4.00;;;;;;;;;;4818377;29;20781;-74
2023/07/04 08:11:59;;;;;;;9.52;4.20;;;;;;;;;;4818899;29;20053;-73
2023/07/04 08:14:32;;;;;;;20.10;8.80;;;;;;;;;;4834393;29;20061;-73
2023/07/04 08:17:05;;;;;;;11.55;6.95;;;;;;;;;;4834429;29;20062;-74
2023/07/04 08:19:36;;;;;;;8.05;5.07;;;;;;;;;;4834457;29;20076;-73
2023/07/04 08:22:07;;;;;;;6.85;4.72;;;;;;;;;;4817711;29;20073;-74
2023/07/04 08:24:36;;;;;;;;;;;;;;;;;;4835049;29;20058;-73
2023/07/04 08:27:07;;;;;;;6.15;4.53;;;;;;;;;;4834451;29;19941;-73
2023/07/04 08:29:38;;;;;;;5.40;4.20;;;;;;;;;;4834349;29;20046;-74
2023/07/04 08:32:10;;;;;;;7.53;4.07;;;;;;;;;;4818662;29;20057;-73
2023/07/04 08:34:40;;;;;;;5.20;3.22;;;;;;;;;;4834022;29;20049;-74
2023/07/04 08:37:10;;;;;;;;;;;;;;;;;;4834664;29;20058;-73
2023/07/04 08:39:45;;;;;;;6.38;3.83;;;;;;;;;;4834176;29;19948;-73
2023/07/04 08:42:19;;;;;;;5.55;3.20;;;;;;;;;;4834393;29;20596;-74
2023/07/04 08:44:52;;;;;;;6.15;3.92;;;;;;;;;;4817137;29;20050;-73
2023/07/04 08:47:25;;;;;;;5.88;4.53;;;;;;;;;;4817564;29;20073;-73
2023/07/04 08:50:10;;;;;;;9.45;3.55;;;;;;;;;;4834296;29;20521;-74
2023/07/04 08:53:08;;;;;;;5.40;3.38;;;;;;;;;;4834117;29;20046;-73
2023/07/04 08:55:47;;;;;;;6.57;3.53;;;;;;;;;;4831720;29;20577;-73
2023/07/04 08:58:21;;;;;;;8.30;3.80;;;;;;;;;;4833602;29;20050;-74
2023/07/04 09:00:52;;;;;;;6.45;3.40;;;;;;;;;;4833861;29;20776;-74
2023/07/04 09:03:49;;;;;;;8.18;4.05;;;;;;;;;;4834614;29;20495;-74
2023/07/04 09:06:43;;;;;;;11.63;3.92;;;;;;;;;;4834343;29;20054;-74
2023/07/04 09:09:26;;;;;;;6.15;3.53;;;;;;;;;;4834483;29;20084;-73
2023/07/04 09:11:57;;;;;;;5.80;3.03;;;;;;;;;;4833603;29;20054;-73
2023/07/04 09:14:44;;;;;;;8.45;3.63;;;;;;;;;;4834124;29;20514;-73
2023/07/04 09:17:30;;;;;;;6.85;3.65;;;;;;;;;;4833754;29;20058;-73
2023/07/04 09:20:05;;;;;;;9.02;4.13;;;;;;;;;;4833643;29;20046;-73
2023/07/04 09:22:36;;;;;;;9.30;3.55;;;;;;;;;;4834511;29;20058;-73
2023/07/04 09:25:08;;;;;;;6.82;3.60;;;;;;;;;;4834044;29;20060;-73
2023/07/04 09:27:39;;;;;;;5.70;3.70;;;;;;;;;;4833758;29;20854;-74
2023/07/04 09:30:11;;;;;;;8.82;3.65;;;;;;;;;;4834329;29;20068;-73
2023/07/04 09:32:43;;;;;;;8.00;3.53;;;;;;;;;;4837008;29;20058;-74
2023/07/04 09:35:16;;;;;;;5.70;3.78;;;;;;;;;;4837426;29;20142;-74
2023/07/04 09:38:02;;;;;;;6.55;3.30;;;;;;;;;;4837688;29;20057;-77
2023/07/04 09:40:51;;;;;;;5.65;3.45;;;;;;;;;;4837575;29;20050;-76
2023/07/04 09:43:31;;;;;;;7.82;4.07;;;;;;;;;;4836680;29;20128;-73
2023/07/04 09:46:25;;;;;;;12.18;3.90;;;;;;;;;;4837042;29;20065;-74
2023/07/04 09:49:30;;;;;;;8.70;3.40;;;;;;;;;;4837215;29;20058;-73
2023/07/04 09:52:02;;;;;;;5.75;3.80;;;;;;;;;;4837171;29;20046;-74
2023/07/04 09:54:37;;;;;;;7.00;3.63;;;;;;;;;;4837338;29;20060;-74
2023/07/04 09:57:22;;;;;;;8.60;4.05;;;;;;;;;;4836900;29;20050;-74
2023/07/04 09:59:53;;;;;;;6.00;3.50;;;;;;;;;;4836336;29;20076;-73
2023/07/04 10:02:34;;;;;;;11.93;4.50;;;;;;;;;;4819523;29;20065;-74
2023/07/04 10:05:10;;;;;;;9.55;3.72;;;;;;;;;;4836344;29;20062;-73
2023/07/04 10:07:41;;;;;;;5.15;3.55;;;;;;;;;;4837157;29;20058;-73
2023/07/04 10:10:13;;;;;;;5.35;3.28;;;;;;;;;;4836295;29;20062;-74
2023/07/04 10:12:46;;;;;;;6.35;3.97;;;;;;;;;;4820341;29;20054;-74
2023/07/04 10:15:37;;;;;;;8.20;3.15;;;;;;;;;;4836518;29;20060;-73
2023/07/04 10:18:32;;;;;;;10.10;3.53;;;;;;;;;;4836473;29;20046;-73
2023/07/04 10:21:07;;;;;;;13.93;3.40;;;;;;;;;;4835848;29;20057;-73
2023/07/04 10:23:37;;;;;;;7.95;3.35;;;;;;;;;;4836441;29;20057;-73
2023/07/04 10:26:09;;;;;;;5.95;3.67;;;;;;;;;;4836595;29;20049;-77
2023/07/04 10:28:41;;;;;;;4.72;3.63;;;;;;;;;;4836600;29;20447;-76
2023/07/04 10:31:17;;;;;;;10.98;3.92;;;;;;;;;;4836436;29;20050;-73
2023/07/04 10:33:51;;;;;;;8.82;4.22;;;;;;;;;;4836142;29;20884;-73
2023/07/04 10:36:31;;;;;;;14.73;4.90;;;;;;;;;;4836386;29;20064;-73
2023/07/04 10:39:07;;;;;;;8.35;3.70;;;;;;;;;;4835977;29;20605;-73
2023/07/04 10:41:46;;;;;;;;;;;;;;;;;;4835913;29;20050;-74
2023/07/04 10:44:26;;;;;;;15.80;4.32;;;;;;;;;;4836598;29;19939;-73
2023/07/04 10:46:59;;;;;;;10.77;3.35;;;;;;;;;;4836005;29;20564;-73
2023/07/04 10:49:36;;;;;;;8.55;3.33;;;;;;;;;;4835700;29;20608;-73
2023/07/04 10:52:22;;;;;;;15.07;4.65;;;;;;;;;;4835904;29;20053;-74
2023/07/04 10:54:58;;;;;;;9.00;3.58;;;;;;;;;;4836014;29;20054;-74
2023/07/04 10:57:56;;;;;;;13.90;4.00;;;;;;;;;;4835881;29;20046;-73
2023/07/04 11:00:52;;;;;;;7.25;4.35;;;;;;;;;;4835396;29;20608;-73
2023/07/04 11:03:32;;;;;;;9.00;3.95;;;;;;;;;;4835513;29;20414;-73
2023/07/04 11:06:09;;;;;;;7.35;4.20;;;;;;;;;;4835388;29;20533;-73
2023/07/04 11:08:41;;;;;;;8.20;4.03;;;;;;;;;;4835171;29;20061;-73
2023/07/04 11:11:23;;;;;;;9.35;3.33;;;;;;;;;;4835780;29;20514;-76
2023/07/04 11:13:57;;;;;;;6.63;4.28;;;;;;;;;;4835604;29;20514;-73
2023/07/04 11:16:31;;;;;;;9.48;3.90;;;;;;;;;;4836140;29;20053;-73
2023/07/04 11:19:07;;;;;;;5.38;3.15;;;;;;;;;;4835541;29;20061;-74
2023/07/04 11:22:00;;;;;;;8.02;3.50;;;;;;;;;;4836001;29;20054;-72
2023/07/04 11:24:38;;;;;;;9.30;3.42;;;;;;;;;;4835512;29;20066;-74
2023/07/04 11:27:17;;;;;;;10.52;3.58;;;;;;;;;;4835190;29;20050;-75
2023/07/04 11:29:55;;;;;;;8.30;3.70;;;;;;;;;;4835194;29;20057;-72
2023/07/04 11:32:38;;;;;;;6.47;2.47;;;;;;;;;;4834988;29;20070;-73
2023/07/04 11:35:13;;;;;;;14.63;3.15;;;;;;;;;;4835765;29;20058;-72
2023/07/04 11:37:53;;;;;;;5.05;2.97;;;;;;;;;;4835076;29;20507;-74
2023/07/04 11:40:33;;;;;;;17.77;3.10;;;;;;;;;;4834979;29;20072;-74
2023/07/04 11:43:16;;;;;;;7.65;2.50;;;;;;;;;;4835593;29;20060;-73
2023/07/04 11:45:46;;;;;;;11.43;2.80;;;;;;;;;;4835157;29;20454;-74
2023/07/04 11:48:18;;;;;;;11.65;2.55;;;;;;;;;;4834680;29;20061;-73
2023/07/04 11:50:52;;;;;;;8.35;2.20;;;;;;;;;;4835068;29;20049;-73
2023/07/04 11:53:39;;;;;;;4.03;1.98;;;;;;;;;;4834419;29;20422;-73
2023/07/04 11:56:26;;;;;;;2.97;1.75;;;;;;;;;;4835067;29;20057;-74
2023/07/04 11:59:12;;;;;;;6.82;2.10;;;;;;;;;;4834632;29;20061;-74
2023/07/04 12:02:03;;;;;;;6.40;2.25;;;;;;;;;;4835036;29;20057;-73
2023/07/04 12:04:38;;;;;;;7.43;1.92;;;;;;;;;;4835030;29;20072;-73
2023/07/04 12:07:17;;;;;;;10.48;2.65;;;;;;;;;;4835056;29;20506;-74
2023/07/04 12:09:59;;;;;;;13.02;3.05;;;;;;;;;;4834601;29;20057;-74
2023/07/04 12:12:33;;;;;;;5.45;1.92;;;;;;;;;;4834258;29;20069;-74
2023/07/04 12:15:19;;;;;;;7.10;1.77;;;;;;;;;;4834502;29;20050;-74
2023/07/04 12:17:50;;;;;;;5.63;2.00;;;;;;;;;;4818825;29;20049;-73
2023/07/04 12:20:21;;;;;;;12.82;2.20;;;;;;;;;;4834798;29;20080;-74
2023/07/04 12:22:55;;;;;;;6.28;1.75;;;;;;;;;;4834906;29;20069;-74
2023/07/04 12:25:48;;;;;;;1.75;1.13;;;;;;;;;;4834484;29;20054;-74
2023/07/04 12:28:26;;;;;;;4.60;1.83;;;;;;;;;;4834726;29;20066;-74
2023/07/04 12:31:00;;;;;;;8.50;2.90;;;;;;;;;;4834753;29;20065;-74
2023/07/04 12:33:53;;;;;;;9.65;1.83;;;;;;;;;;4834229;29;20060;-75
2023/07/04 12:36:33;;;;;;;6.40;1.83;;;;;;;;;;4834634;29;20046;-74
2023/07/04 12:39:07;;;;;;;1.73;1.23;;;;;;;;;;4834615;29;20054;-74
2023/07/04 12:41:40;;;;;;;4.53;1.42;;;;;;;;;;4834330;29;20056;-73
2023/07/04 12:44:15;;;;;;;1.55;1.25;;;;;;;;;;4834259;29;20058;-74
2023/07/04 12:46:49;;;;;;;11.10;1.63;;;;;;;;;;4833994;29;20054;-74
2023/07/04 12:49:22;;;;;;;9.77;1.70;;;;;;;;;;4834578;29;20106;-74
2023/07/04 12:51:59;;;;;;;3.22;1.63;;;;;;;;;;4834527;29;20045;-73
2023/07/04 12:54:31;;;;;;;4.53;2.58;;;;;;;;;;4834485;29;20054;-74
2023/07/04 12:57:03;;;;;;;2.25;1.40;;;;;;;;;;4833804;29;20046;-74
2023/07/04 12:59:36;;;;;;;2.88;1.17;;;;;;;;;;4833584;29;20514;-74
2023/07/04 13:02:18;;;;;;;6.47;1.50;;;;;;;;;;4834206;29;20050;-75
2023/07/04 13:04:51;;;;;;;4.97;1.83;;;;;;;;;;4834349;29;20058;-75
2023/07/04 13:07:24;;;;;;;15.93;2.15;;;;;;;;;;4837868;29;20058;-75
2023/07/04 13:09:58;;;;;;;14.38;1.90;;;;;;;;;;4838101;29;20050;-74
2023/07/04 13:12:36;;;;;;;11.45;1.90;;;;;;;;;;4837444;29;20434;-74
2023/07/04 13:15:18;;;;;;;12.15;2.30;;;;;;;;;;4837371;29;20050;-76
2023/07/04 13:17:56;;;;;;;7.55;1.67;;;;;;;;;;4837121;29;20058;-74
2023/07/04 13:20:36;;;;;;;7.90;1.58;;;;;;;;;;4837973;29;20423;-75
2023/07/04 13:23:24;;;;;;;12.13;1.80;;;;;;;;;;4837260;29;20060;-77
2023/07/04 13:25:59;;;;;;;12.50;2.03;;;;;;;;;;4837165;29;20061;-75
2023/07/04 13:28:36;;;;;;;12.15;2.50;;;;;;;;;;4820183;29;20065;-74
2023/07/04 13:31:30;;;;;;;9.65;1.48;;;;;;;;;;4837319;29;20061;-74
2023/07/04 13:34:24;;;;;;;3.72;1.20;;;;;;;;;;4837715;29;20065;-74
2023/07/04 13:37:07;;;;;;;4.53;1.60;;;;;;;;;;4838704;29;20756;-76
2023/07/04 13:39:38;;;;;;;;;;;;;;;;;;4837693;29;20140;-75
2023/07/04 13:42:13;;;;;;;11.82;1.80;;;;;;;;;;4838143;29;20506;-74
2023/07/04 13:44:45;;;;;;;3.03;1.38;;;;;;;;;;4838118;29;20050;-75
2023/07/04 13:47:20;;;;;;;2.00;1.20;;;;;;;;;;4837515;29;20065;-74
2023/07/04 13:49:52;;;;;;;3.65;1.13;;;;;;;;;;4837317;29;20065;-75
2023/07/04 13:52:23;;;;;;;3.35;1.35;;;;;;;;;;4820919;29;20054;-75
2023/07/04 13:54:53;;;;;;;13.35;2.13;;;;;;;;;;4836783;29;20060;-74
2023/07/04 13:57:23;;;;;;;14.25;1.77;;;;;;;;;;4837391;29;20058;-74
2023/07/04 13:59:54;;;;;;;8.20;1.98;;;;;;;;;;4839238;29;20046;-75
2023/07/04 14:02:28;;;;;;;5.90;1.27;;;;;;;;;;4837103;29;20061;-75
2023/07/04 14:05:01;;;;;;;7.80;1.42;;;;;;;;;;4820712;29;20058;-74
2023/07/04 14:07:33;;;;;;;3.25;1.10;;;;;;;;;;4837200;29;20045;-75
2023/07/04 14:10:04;;;;;;;20.27;3.45;;;;;;;;;;4837240;29;20050;-74
2023/07/04 14:12:48;;;;;;;2.58;1.35;;;;;;;;;;4838908;29;20050;-74
2023/07/04 14:15:18;;;;;;;7.75;1.67;;;;;;;;;;4838108;29;20054;-77
2023/07/04 14:18:09;;;;;;;4.35;1.60;;;;;;;;;;4837202;29;20054;-75
2023/07/04 14:20:43;;;;;;;4.82;1.55;;;;;;;;;;4836780;29;20510;-74
2023/07/04 14:23:14;;;;;;;2.90;1.50;;;;;;;;;;4836908;29;20605;-76
2023/07/04 14:25:48;;;;;;;12.60;2.13;;;;;;;;;;4836623;29;20057;-74
2023/07/04 14:28:18;;;;;;;3.63;1.52;;;;;;;;;;4837531;29;20069;-76
2023/07/04 14:30:53;;;;;;;11.05;1.95;;;;;;;;;;4837046;29;20132;-74
2023/07/04 14:33:24;;;;;;;2.00;1.35;;;;;;;;;;4838127;29;20050;-74
2023/07/04 14:35:55;;;;;;;24.80;2.90;;;;;;;;;;4837670;29;20061;-75
2023/07/04 14:38:25;;;;;;;3.85;1.92;;;;;;;;;;4836978;29;20045;-75
2023/07/04 14:40:55;;;;;;;4.47;1.50;;;;;;;;;;4836132;29;20058;-75
2023/07/04 14:43:29;;;;;;;5.47;1.73;;;;;;;;;;4837157;29;20053;-74
2023/07/04 14:46:01;;;;;;;2.72;1.42;;;;;;;;;;4838282;29;20042;-75
2023/07/04 14:48:32;;;;;;;9.18;1.65;;;;;;;;;;4837746;29;20049;-75
2023/07/04 14:51:13;;;;;;;18.42;2.72;;;;;;;;;;4836260;29;20058;-75
2023/07/04 14:53:44;;;;;;;2.35;1.48;;;;;;;;;;4818852;29;20058;-74
2023/07/04 14:56:16;;;;;;;1.85;1.55;;;;;;;;;;4838048;29;20065;-75
2023/07/04 14:58:46;;;;;;;2.47;1.65;;;;;;;;;;4839091;29;20058;-74
2023/07/04 15:01:19;;;;;;;20.42;3.38;;;;;;;;;;4837258;29;20049;-75
2023/07/04 15:03:55;;;;;;;5.97;1.92;;;;;;;;;;4836996;29;20054;-75
2023/07/04 15:06:28;;;;;;;6.60;1.77;;;;;;;;;;4836590;29;20049;-75
2023/07/04 15:08:59;;;;;;;3.65;1.73;;;;;;;;;;4836934;29;20065;-75
2023/07/04 15:11:30;;;;;;;2.17;1.42;;;;;;;;;;4837480;29;20046;-75
2023/07/04 15:14:01;;;;;;;6.70;2.05;;;;;;;;;;4836953;29;20061;-74
2023/07/04 15:16:32;;;;;;;22.70;3.42;;;;;;;;;;4837023;29;20058;-77
2023/07/04 15:19:03;;;;;;;2.33;1.60;;;;;;;;;;4835974;29;20065;-77
2023/07/04 15:21:33;;;;;;;2.25;1.63;;;;;;;;;;4835769;29;20054;-74
2023/07/04 15:24:04;;;;;;;24.17;4.90;;;;;;;;;;4835983;29;20065;-74